Terminal Aerodrome Forecast
Issued by NWS Louisville, KY

Home | Current Version | Previous Version | Text Only | Print | Product List | Glossary On
Versions: 1 2 3 4 5 6 7 8 9 10 11 12 13 14 15 16 17 18 19 20 21 22 23 24 25 26 27 28 29
000
FTUS43 KLMK 032300 AAB
TAFSDF
TAF AMD
KSDF 032304Z 0323/0424 23014G24KT P6SM VCSH OVC020
     FM032330 23012KT 3SM -RA BKN008 OVC020
     FM040700 32008KT 5SM -RA BR BKN008
     FM041600 34009KT 2SM -SN BR BKN004=

USA.gov is the U.S. government's official web portal to all federal, state and local government web resources and services.